Tiempo atmosférico en la estación meteorológica de Baza, Granada (801 m.)



Fecha
DESCASC
Temp. máxima en grados centígrados (hora)
DESCASC
Temp. mínima en grados centígrados (hora)
DESCASC
Temp. media en grados centígrados
DESCASC
Racha de viento máxima en m/sg (hora)
DESCASC
Velocidad máxima media en intervalos de 10 minutos(hora)
DESCASC
Precipitaciones diarias en mm
DESCASC
Precipitaciones de 00:00 a 06:00 en mm
DESCASC
Precipitaciones de 06:00 a 12:00 en mm
DESCASC
Precipitaciones de 12:00 a 18:00 en mm
DESCASC
Precipitaciones de 18:00 a 24:00 en mm
DESCASC
15-11-2018 16.4 (13:40) 9.4 (06:10) 12.9 7.5 (13:50) 4.44 (13:50) 10.6 9.8 0.2 0.6 0
14-11-2018 16.2 (15:20) 10.4 (08:10) 13.3 8.89 (14:30) 5.28 (14:30) 3.4 0.8 2.2 0 0.4
13-11-2018 18.7 (13:50) 2.9 (08:00) 10.8 8.61 (13:30) 5.28 (14:20) 0 0 0 0 0
12-11-2018 18.2 (16:00) 2.3 (06:10) 10.3 5.56 (18:50) 3.33 (14:00) 0 0 0 0 0
11-11-2018 20 (17:30) 4 (00:00) 12 6.39 (20:50) 3.33 (20:50) 0 0 0 0 0
10-11-2018 17.7 (16:00) 6.5 (00:00) 12.1 9.17 (12:50) 5.83 (12:50) 0 0 0 0 0
09-11-2018 11.6 (14:30) 5.1 (00:00) 8.4 14.44 (01:00) 8.33 (01:20) 1.4 1.4 0 0 0
08-11-2018 20.7 (14:40) 2.7 (00:00) 11.7 12.22 (21:10) 6.67 (21:20) 2 0 0 0 2
07-11-2018 17.5 (14:50) 2 (00:00) 9.8 11.94 (11:00) 8.33 (11:00) 0 0 0 0 0
06-11-2018 13.8 (14:50) 3.6 (00:00) 8.7 10.56 (11:10) 6.11 (11:50) 0 0 0 0 0
05-11-2018 12.1 (16:00) 4.7 (00:00) 8.4 13.33 (16:10) 6.67 (16:10) 1.6 0 1.4 0.2 0
04-11-2018 18.5 (15:20) -1.8 (-00:0) 8.4 7.78 (14:00) 5.28 (15:00) 0 0 0 0 0
03-11-2018 16.5 (14:40) 3.1 (00:00) 9.8 10 (13:30) 6.11 (13:30) 0 0 0 0 0
02-11-2018 14.8 (12:20) 5.9 (00:00) 10.4 12.22 (15:10) 8.06 (15:10) 0 0 0 0 0
01-11-2018 14 (14:50) 5.9 (00:00) 10 10.83 (13:00) 6.94 (13:30) 0 0 0 0 0
31-10-2018 10.9 (17:00) 5 (00:00) 7.9 13.61 (13:10) 7.78 (13:20) 0 0 0 0 0
30-10-2018 15.4 (15:00) 5.2 (00:00) 10.3 12.22 (23:00) 6.67 (14:40) 2 0 0 0 2
29-10-2018 9.9 (15:20) 1.6 (00:00) 5.7 14.17 (09:50) 8.06 (17:10) 0 0 0 0 0
28-10-2018 10.3 (13:40) 3.4 (00:00) 6.9 12.22 (02:50) 7.22 (21:40) 0 0 0 0 0
27-10-2018 17.8 (17:50) 8.5 (00:00) 13.1 13.33 (20:20) 7.78 (18:30) 1.8 0 0 1 0.8
26-10-2018 19.9 (15:10) 4.8 (00:00) 12.3 9.72 (16:00) 6.11 (15:50) 0.2 0 0 0.2 0
25-10-2018 25.4 (18:20) 4.3 (00:00) 14.8 5 (19:50) 3.06 (20:00) 0 0 0 0 0
24-10-2018 22.4 (17:40) 8.3 (00:00) 15.3 3.89 (23:00) 3.33 (23:00) 0 0 0 0 0
23-10-2018 23.4 (17:00) 10.3 (00:00) 16.8 7.5 (14:20) 4.44 (19:00) 0 0 0 0 0
22-10-2018 23.8 (17:10) 8.1 (00:00) 15.9 7.5 (18:20) 3.89 (18:30) 0 0 0 0 0
21-10-2018 22.9 (15:30) 13.1 (00:00) 18 8.61 (16:40) 5 (17:20) 0 0 0 0 0
20-10-2018 15.8 (17:00) 6.8 (00:00) 11.3 10.28 (17:20) 5 (17:20) 3.6 0 0.4 2.6 0.6
19-10-2018 18.8 (17:50) 5.8 (00:00) 12.3 8.61 (17:10) 5 (17:30) 0.2 0 0.2 0 0
18-10-2018 18.6 (15:20) 7.8 (00:00) 13.2 12.22 (12:30) 7.22 (12:10) 1.9 0 0 1.1 0.8

Gráficas

Temp. máximas Temp. mínimas Temp. medias Precipitaciones Rachas de viento máximas Velocidades máximas media en intervalos de 10 minutos

Datos horarios

Fecha y hora oficial Temperatura (ºC) Velocidad del viento (km/h) Dirección del viento Racha (km/h) Dirección de racha Precipitación (mm) Presión (hPa) Tendencia (hPa) Humedad (%)
2018-11-16 23:00:00 9 3 Norte 8 Noroeste 0 927.1 0.2 98
2018-11-16 22:00:00 9.3 2 Sur 9 Sur 0 927.1 0.2 97
2018-11-16 21:00:00 9.5 2 Este 9 Sudeste 0 927 0.2 96
2018-11-16 20:00:00 10.3 5 Este 9 Sudeste 0 926.9 0.3 94
2018-11-16 19:00:00 11.5 7 Sur 14 Sudeste 0 926.9 0.6 91
2018-11-16 18:00:00 12.9 3 Oeste 10 Oeste 0 926.8 0.3 83
2018-11-16 17:00:00 13.7 6 Sur 18 Sudeste 0 926.6 -0.4 79
2018-11-16 16:00:00 14.8 9 Este 18 Este 0 926.3 -1.3 69
2018-11-16 15:00:00 14.7 10 Sudeste 19 Este 0 926.5 -1.7 76
2018-11-16 14:00:00 14.9 10 Sudeste 17 Sudeste 0 927 -1.4 72
2018-11-16 13:00:00 14.1 9 Norte 14 Norte 0 927.6 -0.9 81
2018-11-16 12:00:00 13.3 5 Noroeste 9 Norte 0 928.2 -0.1 85
2018-11-16 11:00:00 11.6 5 Norte 9 Norte 0 928.4 0.4 92
2018-11-16 10:00:00 9.2 4 Noroeste 9 Norte 0 928.5 0.9 98
2018-11-16 09:00:00 8.1 3 Sudoeste 7 Noroeste 0 928.3 0.8 99
2018-11-16 08:00:00 7.3 5 Noroeste 8 Norte 0 928 0 98
2018-11-16 07:00:00 7.3 4 Sudeste 9 Sudeste 0.2 927.6 -0.5 98
2018-11-16 06:00:00 8.1 5 Sudeste 9 Sur 0 927.5 -0.5 99
2018-11-16 05:00:00 7.7 3 Nordeste 5 Nordeste 0 928 0.1 98
2018-11-16 04:00:00 8.7 2 Norte 6 Este 0 928.1 -0.2 99
2018-11-16 03:00:00 8.5 2 Este 8 Este 0 928 -0.6 98
2018-11-16 02:00:00 8.3 5 Este 9 Sudeste 0 927.9 -0.3 98
2018-11-16 01:00:00 9.4 5 Sudeste 10 Sur 0 928.3 0.4 98
2018-11-16 00:00:00 9.7 4 Sudeste 6 Este 0 928.6 1.2 98
2018-11-15 23:00:00 9.9 4 Sudeste 8 Este 0 928.2 0.9 97
2018-11-15 22:00:00 10.5 2 Nordeste 13 Sudeste 0 927.9 1.1 97
2018-11-15 21:00:00 11 7 Sur 13 Sur 0 927.4 1 96
2018-11-15 20:00:00 11.7 7 Sur 12 Sur 0 927.3 1.4 95
2018-11-15 19:00:00 12.1 9 Sur 19 Sudeste 0 926.8 1.2 91
2018-11-15 18:00:00 13 10 Sudeste 21 Sur 0 926.4 0.9 86
2018-11-15 17:00:00 14.1 9 Sudeste 25 Sudeste 0 925.9 0.1 80
2018-11-15 16:00:00 15.2 10 Sudeste 24 Sudeste 0 925.6 -0.6 73
2018-11-15 15:00:00 14.7 10 Sudeste 26 Sudeste 0 925.5 -1.5 74
2018-11-15 14:00:00 16.1 12 Sudeste 27 Sudeste 0 925.8 -1 70
2018-11-15 13:00:00 14.6 3 Sudoeste 9 Oeste 0.6 926.2 -0.4 77
2018-11-15 12:00:00 12.9 5 Sudoeste 10 Sudoeste 0 927 0.5 91
2018-11-15 11:00:00 11 4 Oeste 7 Oeste 0 926.8 1 98
2018-11-15 10:00:00 10.3 4 Oeste 7 Sudoeste 0.2 926.6 1.3 99
2018-11-15 09:00:00 9.7 3 Sur 5 Norte 0 926.5 1 99
2018-11-15 08:00:00 9.5 4 Norte 7 Norte 0 925.8 0.7 99
2018-11-15 07:00:00 9.6 3 Noroeste 5 Oeste 0 925.3 -0.7 99
2018-11-15 06:00:00 9.5 2 Sudeste 10 Noroeste 5.8 925.5 -0.8 99
2018-11-15 05:00:00 9.8 8 Norte 15 Noroeste 1.4 925.1 -1.4 99
2018-11-15 04:00:00 10.3 0 Calma 6 Sudeste 1 926 -1.2 99
2018-11-15 03:00:00 10.3 5 Sudeste 10 Noroeste 0 926.3 -1.5 98
2018-11-15 02:00:00 10.9 2 Noroeste 7 Norte 0.4 926.5 -1.9 98
2018-11-15 01:00:00 11.1 4 Sudoeste 8 Sur 1.2 927.2 -1.1 98
2018-11-15 00:00:00 11.2 3 Sudeste 9 Sur 0.4 927.8 -0.7 97
2018-11-14 23:00:00 11.4 5 Sudeste 9 Sur 0 928.4 -0.1 96
2018-11-14 22:00:00 11.3 3 Nordeste 9 Este 0 928.3 -0.1 95
2018-11-14 21:00:00 11.4 3 Este 12 Sudeste 0 928.5 0.4 95
2018-11-14 20:00:00 11.3 5 Sur 9 Sur 0 928.5 0.3 93
2018-11-14 19:00:00 12.4 3 Nordeste 8 Sudeste 0 928.4 0 91
2018-11-14 18:00:00 13.1 4 Este 13 Sudeste 0 928.1 -0.4 86
2018-11-14 17:00:00 13.9 7 Sudeste 27 Sudeste 0 928.2 -1 82
2018-11-14 16:00:00 14.6 15 Sudeste 28 Sudeste 0 928.4 -1.4 79
2018-11-14 15:00:00 14.6 19 Sudeste 32 Sudeste 0 928.5 -2.1 82
2018-11-14 14:00:00 13.4 11 Sudeste 23 Sudeste 0 929.2 -2.2 92
2018-11-14 13:00:00 12.4 14 Sudeste 23 Sudeste 0 929.8 -1.8 98
2018-11-14 12:00:00 12 5 Norte 6 Norte 0.2 930.6 -1 99
2018-11-14 11:00:00 11.2 0 Calma 5 Norte 0.4 931.4 0.1 99
2018-11-14 10:00:00 10.8 4 Norte 8 Noroeste 0.4 931.6 0.5 99
2018-11-14 09:00:00 10.6 4 Noroeste 6 Norte 0.6 931.6 0.1 98
2018-11-14 08:00:00 10.5 2 Nordeste 6 Noroeste 0.4 931.3 -0.2 98
2018-11-14 07:00:00 10.6 5 Oeste 7 Oeste 0.2 931.1 -0.8 98
2018-11-14 06:00:00 10.6 0 Calma 6 Noroeste 0.4 931.5 -0.8 97
2018-11-14 05:00:00 10.7 3 Sudoeste 6 Sudeste 0.2 931.5 -1.1 96
2018-11-14 04:00:00 10.9 2 Norte 8 Sudeste 0.2 931.9 -1.1 95
2018-11-14 03:00:00 11.2 2 Oeste 5 Oeste 0 932.3 -0.8 90
2018-11-14 02:00:00 11.1 0 Calma 4 Sudoeste 0 932.6 -0.5 91
2018-11-14 01:00:00 11.3 3 Sur 8 Sudeste 0 933 0.1 90
2018-11-14 00:00:00 11.4 5 Sudeste 12 Sur 0 933.1 0.3 89
2018-11-13 23:00:00 11.5 5 Sur 9 Sur 0 933.1 0.5 90
2018-11-13 22:00:00 11.9 3 Sudeste 11 Sudeste 0 932.9 0.6 87
2018-11-13 21:00:00 12.7 8 Sudeste 17 Sudeste 0 932.8 0.9 84
2018-11-13 20:00:00 13 10 Sudeste 17 Sudeste 0 932.6 1 83
2018-11-13 19:00:00 13.2 8 Sudeste 21 Sudeste 0 932.3 0.9 81
2018-11-13 18:00:00 14 12 Sudeste 23 Sudeste 0 931.9 0.8 75
2018-11-13 17:00:00 14.9 12 Sudeste 28 Sudeste 0 931.6 0.5 69
2018-11-13 16:00:00 15.4 14 Sudeste 27 Sudeste 0 931.4 0.1 66
2018-11-13 15:00:00 15.8 17 Sudeste 28 Sudeste 0 931.1 -0.9 64
2018-11-13 14:00:00 18 15 Sudeste 31 Sudeste 0 931.1 -1.2 54
2018-11-13 13:00:00 17.9 16 Sudeste 29 Sudeste 0 931.3 -0.7 54
2018-11-13 12:00:00 14.4 8 Norte 15 Norte 0 932 0.3 65
2018-11-13 11:00:00 10.4 3 Norte 7 Norte 0 932.3 1.2 78
2018-11-13 10:00:00 7.1 4 Norte 7 Norte 0 932 1.3 98
2018-11-13 09:00:00 4.5 4 Sudeste 6 Sudeste 0 931.7 1.2 98
2018-11-13 08:00:00 2.9 5 Sudeste 9 Sudeste 0 931.1 1.1 98
2018-11-13 07:00:00 3.4 7 Sur 9 Sur 0 930.7 0.8 97
2018-11-13 06:00:00 3.8 6 Sudeste 9 Sudeste 0 930.5 0.9 96
2018-11-13 05:00:00 4.3 4 Este 8 Sudeste 0 930 0.4 96
2018-11-13 04:00:00 4.7 7 Sudeste 9 Sudeste 0 929.9 0.4 95
2018-11-13 03:00:00 5.5 7 Sudeste 10 Sudeste 0 929.6 0.6 95
2018-11-13 02:00:00 6.7 10 Sudeste 12 Sudeste 0 929.6 1.1 95
2018-11-13 01:00:00 7.4 6 Sudeste 8 Sudeste 0 929.5 1.2 92
2018-11-13 00:00:00 9 5 Oeste 10 Este 0 929 1.1 93
2018-11-12 23:00:00 9.3 4 Sudeste 12 Sudeste 0 928.5 1 90
2018-11-12 22:00:00 10.6 8 Sudeste 11 Sudeste 0 928.3 1.4 88
2018-11-12 21:00:00 11.5 5 Este 10 Sur 0 927.9 1.6 82
2018-11-12 20:00:00 12.3 6 Sur 15 Sudeste 0 927.5 1.7 74
2018-11-12 19:00:00 13.5 10 Sudeste 20 Sudeste 0 926.9 1 64
2018-11-12 18:00:00 15.2 8 Sudeste 19 Sudeste 0 926.3 0.7 57
2018-11-12 17:00:00 17.2 4 Este 6 Este 0 925.8 0.1 47
2018-11-12 16:00:00 18.2 3 Oeste 12 Oeste 0 925.9 0.1 40
2018-11-12 15:00:00 17.7 10 Noroeste 17 Noroeste 0 925.6 -0.7 46
2018-11-12 14:00:00 16.1 12 Noroeste 18 Noroeste 0 925.7 -0.4 53
2018-11-12 13:00:00 14.6 7 Norte 11 Norte 0 925.8 -0.1 62
2018-11-12 12:00:00 11.2 4 Norte 14 Noroeste 0 926.3 0.4 82
2018-11-12 11:00:00 9.3 7 Norte 12 Noroeste 0 926.1 0.6 96
2018-11-12 10:00:00 6 3 Sudeste 9 Sur 0 925.9 0.9 99
2018-11-12 09:00:00 3.3 3 Sur 9 Sudoeste 0 925.9 1 99
2018-11-12 08:00:00 2.7 4 Sur 6 Sudeste 0 925.5 0.8 98
2018-11-12 07:00:00 2.4 4 Sudeste 11 Sur 0 925 0.6 98
2018-11-12 06:00:00 2.5 8 Sudeste 11 Sudeste 0 924.9 0.5 97
2018-11-12 05:00:00 3 6 Sudeste 12 Sudeste 0 924.7 0.5 97
2018-11-12 04:00:00 3.7 7 Sur 9 Sudoeste 0 924.4 0.1 97
2018-11-12 03:00:00 4.6 5 Sudoeste 14 Sudeste 0 924.4 0.2 97
2018-11-12 02:00:00 4.1 8 Sudeste 9 Sudeste 0 924.2 -0.2 94
2018-11-12 01:00:00 5.5 3 Sudoeste 10 Sudeste 0 924.3 -0.1 94
2018-11-12 00:00:00 6.5 4 Sudoeste 10 Sur 0 924.2 0 91
2018-11-11 23:00:00 7.9 6 Sur 13 Este 0 924.4 0.3 86
2018-11-11 22:00:00 10 7 Este 18 Sudeste 0 924.4 0.3 85
2018-11-11 21:00:00 11.5 11 Sudeste 23 Sudeste 0 924.2 0.7 81
2018-11-11 20:00:00 11.7 8 Sur 15 Sur 0 924.1 0.9 80
2018-11-11 19:00:00 13.8 11 Sur 18 Sudoeste 0 924.1 0.6 71
2018-11-11 18:00:00 18.2 7 Sudoeste 12 Sudoeste 0 923.5 -0.8 52
2018-11-11 17:00:00 19.5 4 Norte 7 Norte 0 923.2 -2.2 51
2018-11-11 16:00:00 18.8 4 Noroeste 9 Noroeste 0 923.5 -3 52
2018-11-11 15:00:00 17.7 3 Noroeste 9 Noroeste 0 924.3 -3.1 58
2018-11-11 14:00:00 14.9 3 Oeste 8 Norte 0 925.4 -2.6 71
2018-11-11 13:00:00 10.9 4 Noroeste 12 Norte 0 926.5 -2.3 86
2018-11-11 12:00:00 10.1 4 Norte 9 Noroeste 0 927.4 -1.1 93
2018-11-11 11:00:00 9 3 Sudoeste 9 Sudeste 0 928 -0.2 98
2018-11-11 10:00:00 8 6 Sur 9 Sudeste 0 928.8 0.9 99
2018-11-11 09:00:00 6.6 3 Sudeste 8 Sudeste 0 928.5 0.5 99
2018-11-11 08:00:00 4.9 6 Sudeste 10 Sudeste 0 928.2 0.2 98
2018-11-11 07:00:00 4.7 3 Sudoeste 10 Sudeste 0 927.9 -0.2 98
2018-11-11 06:00:00 4.8 4 Sur 8 Sudeste 0 928 -0.3 96
2018-11-11 05:00:00 5.1 4 Sur 10 Sur 0 928 -0.1 96
2018-11-11 04:00:00 5.2 7 Sudeste 12 Sur 0 928.1 -0.2 95
2018-11-11 03:00:00 6.2 6 Sur 9 Sur 0 928.3 -0.5 95
2018-11-11 02:00:00 6.6 6 Sur 10 Sur 0 928.1 -0.9 93
2018-11-11 01:00:00 7.4 3 Norte 9 Norte 0 928.3 -0.6 94
2018-11-11 00:00:00 8.3 4 Sudeste 11 Oeste 0 928.8 0 88
2018-11-10 23:00:00 10 12 Oeste 19 Oeste 0 929 0.3 86
2018-11-10 22:00:00 9.8 15 Oeste 23 Oeste 0 928.9 0.6 87
2018-11-10 21:00:00 10.1 14 Oeste 23 Oeste 0 928.8 1.3 84
2018-11-10 20:00:00 10.7 15 Oeste 26 Oeste 0 928.7 1.3 83
2018-11-10 19:00:00 11.3 14 Oeste 23 Noroeste 0 928.3 1.2 77
2018-11-10 18:00:00 13.2 14 Noroeste 26 Noroeste 0 927.5 0.7 66
2018-11-10 17:00:00 15.6 15 Oeste 29 Noroeste 0 927.4 -0.1 58
2018-11-10 16:00:00 17.3 16 Noroeste 28 Noroeste 0 927.1 -1.4 51
2018-11-10 15:00:00 17 17 Noroeste 27 Noroeste 0 926.8 -2.5 52
2018-11-10 14:00:00 15.4 17 Oeste 33 Oeste 0 927.5 -1.8 56
2018-11-10 13:00:00 14.2 19 Oeste 33 Noroeste 0 928.5 -0.9 58
2018-11-10 12:00:00 13 14 Noroeste 31 Noroeste 0 929.3 0 60
2018-11-10 11:00:00 11.4 16 Noroeste 25 Noroeste 0 929.3 0.8 65
2018-11-10 10:00:00 9.2 9 Norte 17 Oeste 0 929.4 0.8 73
2018-11-10 09:00:00 7.6 4 Noroeste 24 Oeste 0 929.3 0.6 76
2018-11-10 08:00:00 6.6 8 Noroeste 13 Norte 0 928.5 -0.2 79
2018-11-10 07:00:00 7 5 Norte 14 Norte 0 928.6 -0.6 77
2018-11-10 06:00:00 7.5 4 Nordeste 21 Sur 0 928.7 -1 76
2018-11-10 05:00:00 7.1 5 Sur 13 Este 0 928.7 -1.4 77
2018-11-10 04:00:00 7.1 5 Sudeste 13 Nordeste 0 929.2 -1.5 76
2018-11-10 03:00:00 7.2 4 Norte 20 Norte 0 929.7 -1.1 74
2018-11-10 02:00:00 8 11 Noroeste 29 Oeste 0 930.1 -1.4 70
2018-11-10 01:00:00 9.3 17 Oeste 32 Oeste 0 930.7 -0.4 62
2018-11-10 00:00:00 9.3 17 Oeste 33 Oeste 0 930.8 -0.2 61
2018-11-09 23:00:00 9.3 15 Oeste 31 Oeste 0 931.5 0.1 60
2018-11-09 22:00:00 8.6 10 Oeste 25 Oeste 0 931.1 0.4 63
2018-11-09 21:00:00 7.3 4 Nordeste 11 Oeste 0 931 1 74
2018-11-09 20:00:00 8 6 Sur 17 Oeste 0 931.4 2.2 68
2018-11-09 19:00:00 8 3 Este 20 Noroeste 0 930.7 1.6 69
2018-11-09 18:00:00 9.2 8 Noroeste 34 Noroeste 0 930 0.5 62
2018-11-09 17:00:00 11.3 15 Noroeste 39 Noroeste 0 929.2 -0.9 53
2018-11-09 16:00:00 11.1 21 Noroeste 36 Noroeste 0 929.1 -1.5 54
2018-11-09 15:00:00 11.3 21 Noroeste 39 Oeste 0 929.5 -1.8 55
2018-11-09 14:00:00 10.7 20 Noroeste 34 Noroeste 0 930.1 -1.1 59
2018-11-09 13:00:00 10.5 19 Oeste 31 Oeste 0 930.6 -0.5 60
2018-11-09 12:00:00 9.3 17 Oeste 30 Oeste 0 931.3 0.9 65
2018-11-09 11:00:00 8.7 16 Oeste 31 Oeste 0 931.2 1.6 66
2018-11-09 10:00:00 7.3 13 Oeste 25 Oeste 0 931.1 1.8 70
2018-11-09 09:00:00 6.3 7 Oeste 29 Oeste 0 930.4 1.1 72
2018-11-09 08:00:00 5.7 13 Oeste 28 Oeste 0 929.6 1.1 76
2018-11-09 07:00:00 5.1 6 Noroeste 15 Oeste 0 929.3 1.6 83
2018-11-09 06:00:00 5.7 8 Noroeste 24 Oeste 0 929.3 1.7 80
2018-11-09 05:00:00 6.4 17 Oeste 35 Oeste 0 928.5 0.4 75
2018-11-09 04:00:00 6.1 21 Oeste 35 Oeste 0 927.7 0 86
2018-11-09 03:00:00 6.9 16 Oeste 27 Oeste 0 927.6 1 82
2018-11-09 02:00:00 6.7 14 Oeste 49 Noroeste 1.4 928.1 1.1 93
2018-11-09 01:00:00 9.2 27 Noroeste 52 Noroeste 0 927.7 1.1 75
2018-11-09 00:00:00 10.5 11 Sudoeste 27 Sudoeste 0 926.6 0.2 74
2018-11-08 23:00:00 10.1 5 Noroeste 31 Oeste 0 927 1.4 80
2018-11-08 22:00:00 11.2 19 Oeste 44 Oeste 1.8 926.6 1.3 77
2018-11-08 21:00:00 13.2 15 Oeste 33 Sudoeste 0.2 926.4 1.6 78
2018-11-08 20:00:00 14.4 17 Sudoeste 29 Sudoeste 0 925.6 0.8 64
2018-11-08 19:00:00 14.4 9 Sur 20 Sudeste 0 925.3 0.7 77
2018-11-08 18:00:00 15.6 8 Sudeste 19 Sur 0 924.8 -0.3 65
2018-11-08 17:00:00 17.2 11 Sudeste 19 Sudeste 0 924.8 -1.4 57
2018-11-08 16:00:00 18.3 4 Este 17 Noroeste 0 924.6 -2.7 46
2018-11-08 15:00:00 19.7 9 Noroeste 14 Noroeste 0 925.1 -3.3 41
2018-11-08 14:00:00 18.5 3 Norte 11 Norte 0 926.2 -3 48
2018-11-08 13:00:00 17.3 4 Nordeste 10 Este 0 927.3 -2 51
2018-11-08 12:00:00 14.3 3 Nordeste 8 Este 0 928.4 -0.5 63
2018-11-08 11:00:00 10.2 3 Norte 12 Norte 0 929.2 0.9 87
2018-11-08 10:00:00 7.1 5 Norte 9 Norte 0 929.3 0.9 98
2018-11-08 09:00:00 4.5 5 Oeste 9 Sudeste 0 928.9 0.5 98
2018-11-08 08:00:00 2.8 8 Sur 11 Sudeste 0 928.3 -0.1 98
2018-11-08 07:00:00 2.7 8 Sudeste 10 Sudeste 0 928.4 -0.2 97
2018-11-08 06:00:00 3.2 7 Sur 10 Sudeste 0 928.4 -0.5 97
2018-11-08 05:00:00 3.7 8 Sur 10 Sur 0 928.4 -0.4 96
2018-11-08 04:00:00 4.7 6 Sur 12 Sudoeste 0 928.6 -0.7 95
2018-11-08 03:00:00 5.4 2 Noroeste 6 Sudeste 0 928.9 -0.6 94
2018-11-08 02:00:00 6 7 Sur 12 Sudeste 0 928.8 -0.7 94
2018-11-08 01:00:00 6.2 9 Sudeste 13 Sudeste 0 929.3 0 94
2018-11-08 00:00:00 6.9 9 Sudeste 13 Sudeste 0 929.5 0.6 92
2018-11-07 23:00:00 8.2 9 Sur 13 Sudeste 0 929.5 1 88
2018-11-07 22:00:00 10.8 6 Oeste 9 Oeste 0 929.3 1.3 83
2018-11-07 21:00:00 12.4 7 Noroeste 19 Noroeste 0 928.9 1.2 74
2018-11-07 20:00:00 12.1 9 Noroeste 17 Noroeste 0 928.5 1.2 75
2018-11-07 19:00:00 13.3 8 Noroeste 15 Oeste 0 928 0.9 69
2018-11-07 18:00:00 14.9 12 Oeste 23 Oeste 0 927.7 0.6 61
2018-11-07 17:00:00 16.6 16 Oeste 32 Oeste 0 927.3 0.3 53
2018-11-07 16:00:00 17.2 19 Oeste 31 Oeste 0 927.1 -0.4 51
2018-11-07 15:00:00 17.4 18 Sudoeste 32 Sudoeste 0 927.1 -0.5 49
2018-11-07 14:00:00 15.9 18 Oeste 31 Oeste 0 927 -0.3 53
2018-11-07 13:00:00 15.2 19 Oeste 33 Noroeste 0 927.5 0 54
2018-11-07 12:00:00 14.4 21 Oeste 40 Oeste 0 927.6 0.6 54
2018-11-07 11:00:00 12.3 30 Oeste 43 Oeste 0 927.3 0.9 61
2018-11-07 10:00:00 10.4 21 Oeste 32 Oeste 0 927.5 1.8 66
2018-11-07 09:00:00 7.4 7 Noroeste 18 Noroeste 0 927 1.2 79
2018-11-07 08:00:00 6 9 Oeste 23 Oeste 0 926.4 1 80
2018-11-07 07:00:00 6.8 15 Oeste 23 Oeste 0 925.7 1 79
2018-11-07 06:00:00 5.1 13 Oeste 24 Oeste 0 925.8 0.6 87
2018-11-07 05:00:00 3.3 8 Oeste 14 Noroeste 0 925.4 -0.6 97
2018-11-07 04:00:00 2 4 Sudoeste 10 Sur 0 924.7 -2.3 94
2018-11-07 03:00:00 3.1 5 Sur 10 Sudeste 0 925.2 -1.5 93
2018-11-07 02:00:00 3.8 7 Sur 19 Oeste 0 926 -0.1 91
2018-11-07 01:00:00 3.5 3 Oeste 13 Oeste 0 927 0.5 95
2018-11-07 00:00:00 3.6 4 Sur 14 Sudeste 0 926.7 0.4 91
2018-11-06 23:00:00 4 9 Sudeste 13 Sudeste 0 926.1 0.3 89
2018-11-06 22:00:00 6.5 6 Sudoeste 15 Oeste 0 926.5 0.6 84
2018-11-06 21:00:00 6.9 3 Oeste 9 Noroeste 0 926.3 0.9 80
2018-11-06 20:00:00 7.3 4 Noroeste 11 Noroeste 0 925.8 0.3 80
2018-11-06 19:00:00 8.6 10 Noroeste 17 Noroeste 0 925.9 0.6 73
2018-11-06 18:00:00 10.2 9 Noroeste 27 Oeste 0 925.4 0.5 64
2018-11-06 17:00:00 11.8 17 Noroeste 29 Noroeste 0 925.5 0.2 56
2018-11-06 16:00:00 13.2 16 Oeste 29 Noroeste 0 925.3 -0.6 51
2018-11-06 15:00:00 13.6 16 Noroeste 28 Oeste 0 924.9 -1.7 45
2018-11-06 14:00:00 12.8 17 Noroeste 29 Oeste 0 925.3 -1.3 46
2018-11-06 13:00:00 12.1 17 Noroeste 31 Noroeste 0 925.9 -0.5 49
2018-11-06 12:00:00 11 22 Oeste 38 Oeste 0 926.6 0.6 52
2018-11-06 11:00:00 9.6 20 Oeste 34 Oeste 0 926.6 1.5 55
2018-11-06 10:00:00 7.6 12 Noroeste 20 Noroeste 0 926.4 2.1 71
2018-11-06 09:00:00 5.9 10 Noroeste 18 Noroeste 0 926 2.1 81
2018-11-06 08:00:00 5.4 10 Oeste 18 Oeste 0 925.1 1.7 82
2018-11-06 07:00:00 5.7 9 Noroeste 22 Oeste 0 924.3 1.2 76
2018-11-06 06:00:00 6.1 11 Oeste 22 Oeste 0 923.9 1.1 72
2018-11-06 05:00:00 5.5 10 Noroeste 29 Oeste 0 923.4 0.7 82
2018-11-06 04:00:00 6.4 18 Oeste 30 Oeste 0 923.1 0.5 73
2018-11-06 03:00:00 6.4 10 Sudoeste 27 Sudoeste 0 922.8 0.6 71
2018-11-06 02:00:00 6.7 5 Oeste 23 Oeste 0 922.7 0.7 75
2018-11-06 01:00:00 6.7 3 Sudeste 22 Oeste 0 922.6 1.5 78
2018-11-06 00:00:00 6.8 9 Oeste 32 Sudoeste 0 922.2 1.5 75
2018-11-05 23:00:00 7.1 18 Oeste 42 Oeste 0 922 1.5 76
2018-11-05 22:00:00 6.8 19 Oeste 41 Oeste 0 921.1 1.4 79
2018-11-05 21:00:00 6.8 14 Oeste 42 Oeste 0 920.7 2.1 78
2018-11-05 20:00:00 7.2 21 Oeste 40 Oeste 0 920.5 2.6 82
2018-11-05 19:00:00 7.7 19 Oeste 32 Oeste 0 919.7 2.6 69
2018-11-05 18:00:00 8 19 Oeste 45 Oeste 0 918.6 1.7 67
2018-11-05 17:00:00 10.1 21 Oeste 48 Oeste 0 917.9 0.9 57
2018-11-05 16:00:00 12 24 Oeste 41 Oeste 0 917.1 -0.7 50
2018-11-05 15:00:00 8.8 13 Noroeste 41 Oeste 0 916.9 -1.5 78
2018-11-05 14:00:00 8.2 14 Oeste 29 Oeste 0 917 -1.7 81
2018-11-05 13:00:00 7.1 15 Norte 27 Norte 0.2 917.8 -0.2 87
2018-11-05 12:00:00 7.3 10 Oeste 32 Oeste 0.6 918.4 1.1 83
2018-11-05 11:00:00 7.9 16 Oeste 33 Oeste 0.4 918.7 3.7 86
2018-11-05 10:00:00 8.4 7 Norte 27 Noroeste 0.2 918 2.9 96
2018-11-05 09:00:00 8.2 15 Oeste 34 Oeste 0.2 917.3 1.5 98
2018-11-05 08:00:00 6.7 2 Sudoeste 10 Sudoeste 0 915 -1.5 98
2018-11-05 07:00:00 6.2 6 Sudoeste 10 Sudoeste 0 915.1 -1.8 98
2018-11-05 06:00:00 6 6 Sur 9 Sudeste 0 915.8 -2.3 97
2018-11-05 05:00:00 6.6 4 Sur 10 Sudoeste 0 916.5 -2.3 97
2018-11-05 04:00:00 6.3 6 Sudeste 12 Sudeste 0 916.9 -2.2 96
2018-11-05 03:00:00 6.5 3 Este 13 Noroeste 0 918.1 -1.9 95
2018-11-05 02:00:00 6.5 8 Noroeste 12 Noroeste 0 918.8 -2.3 96
2018-11-05 01:00:00 4.9 5 Sudoeste 12 Sudeste 0 919.1 -2.3 85
2018-11-05 00:00:00 5.9 7 Sudeste 15 Oeste 0 920 -1.4 89
2018-11-04 23:00:00 6.7 7 Sur 14 Oeste 0 921.1 -0.6 80
2018-11-04 22:00:00 10.1 7 Sur 25 Oeste 0 921.4 0 76
2018-11-04 21:00:00 10.1 2 Sudoeste 11 Oeste 0 921.4 0.3 76
2018-11-04 20:00:00 12 8 Sur 23 Sudoeste 0 921.7 0.6 62
2018-11-04 19:00:00 13.4 8 Oeste 13 Oeste 0 921.4 -0.2 57
2018-11-04 18:00:00 15.4 6 Sudoeste 25 Noroeste 0 921.1 -1.1 48
2018-11-04 17:00:00 16.6 17 Noroeste 26 Noroeste 0 921.1 -2 41
2018-11-04 16:00:00 18.1 16 Noroeste 26 Noroeste 0 921.6 -2.5 32
2018-11-04 15:00:00 18.1 19 Noroeste 28 Noroeste 0 922.2 -3.1 29
2018-11-04 14:00:00 17.4 18 Noroeste 28 Noroeste 0 923.1 -3.1 27
2018-11-04 13:00:00 15.7 15 Noroeste 28 Noroeste 0 924.1 -2.5 31
2018-11-04 12:00:00 11.4 5 Norte 12 Norte 0 925.3 -1.4 50
2018-11-04 11:00:00 7.8 4 Norte 7 Norte 0 926.2 -0.1 60
2018-11-04 10:00:00 3.8 3 Nordeste 6 Este 0 926.6 0.2 84
2018-11-04 09:00:00 0.6 2 Noroeste 4 Sudeste 0 926.7 0.1 96
2018-11-04 08:00:00 -1.7 5 Sur 9 Sudeste 0 926.3 -0.2 93
2018-11-04 07:00:00 -1.1 5 Sur 8 Sudeste 0 926.4 -0.5 93
2018-11-04 06:00:00 0.2 4 Sudoeste 6 Oeste 0 926.6 -0.7 93
2018-11-04 05:00:00 -0.6 5 Sudeste 10 Sudeste 0 926.5 -1.4 88
2018-11-04 04:00:00 0.4 4 Sudoeste 9 Sudeste 0 926.9 -1.5 82
2018-11-04 03:00:00 1.4 7 Sur 11 Sur 0 927.3 -1.5 69
2018-11-04 02:00:00 1.6 5 Sudeste 11 Sudeste 0 927.9 -1 79
2018-11-04 01:00:00 2 8 Sudeste 11 Sur 0 928.4 -0.4 82
2018-11-04 00:00:00 3.1 8 Sur 10 Sudeste 0 928.8 -0.1 78
2018-11-03 23:00:00 4.7 5 Sur 8 Sudeste 0 928.9 -0.2 72
2018-11-03 22:00:00 6.7 5 Sudeste 11 Sudoeste 0 928.8 0.2 68
2018-11-03 21:00:00 9.9 6 Sudoeste 21 Sudoeste 0 928.9 0.7 52
2018-11-03 20:00:00 11.4 9 Sudoeste 22 Sur 0 929.1 0.7 44
2018-11-03 19:00:00 11.9 15 Oeste 25 Oeste 0 928.6 0.1 43
2018-11-03 18:00:00 13.7 13 Oeste 27 Oeste 0 928.2 -0.3 38
2018-11-03 17:00:00 15.9 13 Oeste 29 Oeste 0 928.4 -0.5 30
2018-11-03 16:00:00 16.4 18 Oeste 30 Noroeste 0 928.5 -1.1 24
2018-11-03 15:00:00 16.4 19 Oeste 31 Oeste 0 928.5 -1.6 27
2018-11-03 14:00:00 16.3 19 Oeste 36 Oeste 0 928.9 -1.6 30
2018-11-03 13:00:00 15.5 20 Oeste 33 Oeste 0 929.6 -1.6 39
2018-11-03 12:00:00 14.4 19 Noroeste 34 Oeste 0 930.1 -1.4 52
2018-11-03 11:00:00 12.9 17 Noroeste 27 Noroeste 0 930.5 -0.5 65
2018-11-03 10:00:00 10.7 14 Oeste 25 Noroeste 0 931.2 0.4 81
2018-11-03 09:00:00 9.3 11 Noroeste 22 Oeste 0 931.5 0.8 88
2018-11-03 08:00:00 8.4 11 Noroeste 28 Oeste 0 931 0.1 91
2018-11-03 07:00:00 8.5 15 Oeste 29 Oeste 0 930.8 -0.5 94
2018-11-03 06:00:00 8.8 19 Oeste 30 Oeste 0 930.7 -0.8 92
2018-11-03 05:00:00 9.4 12 Noroeste 27 Oeste 0 930.9 -1.1 88
2018-11-03 04:00:00 10.2 15 Oeste 27 Oeste 0 931.3 -1.2 86
2018-11-03 03:00:00 9.6 10 Noroeste 21 Oeste 0 931.5 -1.5 87
2018-11-03 02:00:00 9.3 6 Noroeste 18 Oeste 0 932 -0.9 87
2018-11-03 01:00:00 10.2 6 Norte 23 Oeste 0 932.5 -0.6 83
2018-11-03 00:00:00 10.5 14 Oeste 32 Oeste 0 933 0.2 82
2018-11-02 23:00:00 10.5 23 Oeste 33 Oeste 0 932.9 0.6 80
2018-11-02 22:00:00 10.2 11 Sudoeste 27 Sudoeste 0 933.1 1.1 81
2018-11-02 21:00:00 10.5 14 Sudoeste 28 Oeste 0 932.8 1.6 78
2018-11-02 20:00:00 10.4 16 Oeste 29 Oeste 0 932.3 1.5 80
2018-11-02 19:00:00 10.8 14 Oeste 39 Oeste 0 932 1.1 77
2018-11-02 18:00:00 11.3 27 Oeste 44 Oeste 0 931.2 0.4 75
2018-11-02 17:00:00 13.6 28 Oeste 42 Oeste 0 930.8 -0.1 64
2018-11-02 16:00:00 13.5 23 Oeste 44 Oeste 0 930.9 -0.2 63
2018-11-02 15:00:00 13.5 23 Oeste 42 Oeste 0 930.8 -0.9 63
2018-11-02 14:00:00 13.5 27 Oeste 42 Oeste 0 930.9 -0.9 60
2018-11-02 13:00:00 13.7 23 Noroeste 39 Noroeste 0 931.1 -1 58
2018-11-02 12:00:00 14.3 18 Noroeste 30 Noroeste 0 931.7 0.1 55
2018-11-02 11:00:00 11.1 18 Noroeste 28 Noroeste 0 931.8 0.4 64
2018-11-02 10:00:00 10.3 13 Noroeste 26 Noroeste 0 932.1 1 65
2018-11-02 09:00:00 8.6 13 Noroeste 19 Noroeste 0 931.6 0.8 73
2018-11-02 08:00:00 6.7 4 Este 14 Noroeste 0 931.4 0.6 79
2018-11-02 07:00:00 8.2 10 Oeste 22 Sudoeste 0 931.1 0.2 72
2018-11-02 06:00:00 6.5 10 Oeste 16 Oeste 0 930.8 -0.3 79
2018-11-02 05:00:00 6 8 Oeste 14 Oeste 0 930.8 -0.5 82
2018-11-02 04:00:00 6 11 Oeste 14 Oeste 0 930.9 -0.4 81
2018-11-02 03:00:00 6.5 11 Oeste 19 Oeste 0 931.1 -0.1 78
2018-11-02 02:00:00 7.1 11 Oeste 21 Oeste 0 931.3 0.6 74
2018-11-02 01:00:00 9.1 12 Oeste 22 Oeste 0 931.3 1 65
2018-11-02 00:00:00 8.1 12 Oeste 18 Oeste 0 931.2 1.1 70
2018-11-01 23:00:00 8.6 9 Oeste 19 Oeste 0 930.7 1.2 68
2018-11-01 22:00:00 8.6 10 Oeste 17 Sudoeste 0 930.3 1.9 69
2018-11-01 21:00:00 8.7 12 Oeste 21 Oeste 0 930.1 2.5 70
2018-11-01 20:00:00 8.6 9 Oeste 18 Oeste 0 929.5 2.5 70
2018-11-01 19:00:00 9.6 9 Oeste 24 Oeste 0 928.4 2.3 67
2018-11-01 18:00:00 11 17 Oeste 35 Oeste 0 927.6 1.9 61
2018-11-01 17:00:00 12.6 24 Oeste 37 Oeste 0 927 1.3 55
2018-11-01 16:00:00 13.6 23 Oeste 36 Oeste 0 926.1 0.3 51
2018-11-01 15:00:00 13.8 21 Oeste 34 Oeste 0 925.7 0 48
2018-11-01 14:00:00 13.4 19 Oeste 38 Oeste 0 925.7 0.6 51
2018-11-01 13:00:00 12.5 22 Oeste 39 Oeste 0 925.8 1.1 54
2018-11-01 12:00:00 11.5 21 Oeste 30 Oeste 0 925.7 1.7 58
2018-11-01 11:00:00 10 18 Oeste 31 Oeste 0 925.1 2.7 67
2018-11-01 10:00:00 8.2 18 Oeste 32 Oeste 0 924.7 3.5 73
2018-11-01 09:00:00 7.1 16 Oeste 27 Oeste 0 924 3.8 85
2018-11-01 08:00:00 6.4 15 Oeste 24 Oeste 0 922.4 3.1 87
2018-11-01 07:00:00 7.1 14 Oeste 24 Oeste 0 921.2 2.1 85
2018-11-01 06:00:00 6.9 11 Oeste 23 Oeste 0 920.2 1.5 86
2018-11-01 05:00:00 6.7 10 Oeste 16 Oeste 0 919.3 0.8 88
2018-11-01 04:00:00 6.1 3 Noroeste 5 Oeste 0 919.1 0.8 92
2018-11-01 03:00:00 6.2 3 Sur 7 Noroeste 0 918.7 0.6 88
2018-11-01 02:00:00 6.1 4 Oeste 7 Oeste 0 918.5 0.9 88
2018-11-01 01:00:00 6.4 4 Noroeste 9 Noroeste 0 918.3 1 87
2018-11-01 00:00:00 6.7 6 Noroeste 10 Noroeste 0 918.1 0.9 84
2018-10-31 23:00:00 7.3 3 Oeste 6 Noroeste 0 917.6 0.9 82
2018-10-31 22:00:00 7 0 Calma 5 Norte 0 917.3 0.3 83
2018-10-31 21:00:00 7 4 Este 8 Sudeste 0 917.2 0.3 82
2018-10-31 20:00:00 7.4 3 Nordeste 6 Oeste 0 916.7 -0.2 77
2018-10-31 19:00:00 8.2 4 Oeste 11 Noroeste 0 917 -0.2 69
2018-10-31 18:00:00 8.6 9 Noroeste 22 Oeste 0 916.9 0.4 64
2018-10-31 17:00:00 10.9 12 Oeste 28 Sudoeste 0 916.9 -0.1 55
2018-10-31 16:00:00 10.2 18 Sudoeste 35 Oeste 0 917.2 0.1 54
2018-10-31 15:00:00 10.5 19 Sudoeste 37 Sudoeste 0 916.5 -0.5 54
2018-10-31 14:00:00 10 22 Oeste 49 Oeste 0 917 0.4 55
2018-10-31 13:00:00 10.4 26 Oeste 47 Oeste 0 917.1 0.8 51
2018-10-31 12:00:00 9.2 27 Oeste 45 Oeste 0 917 1.1 59
2018-10-31 11:00:00 7.5 19 Oeste 41 Oeste 0 916.6 1.7 70
2018-10-31 10:00:00 7.3 27 Oeste 45 Sudoeste 0 916.3 1.1 66
2018-10-31 09:00:00 5.8 12 Oeste 46 Oeste 0 915.9 0.8 72
2018-10-31 08:00:00 5.4 24 Oeste 48 Sudoeste 0 914.9 0.1 74
2018-10-31 07:00:00 5.2 23 Sudoeste 37 Oeste 0 915.2 0.5 75
2018-10-31 06:00:00 5 7 Noroeste 16 Noroeste 0 915.1 0.8 79
2018-10-31 05:00:00 5.1 9 Oeste 31 Sudoeste 0 914.8 0.5 80
2018-10-31 04:00:00 5.5 18 Sudoeste 34 Oeste 0 914.7 0.7 83
2018-10-31 03:00:00 6.1 12 Oeste 26 Oeste 0 914.3 0.4 80
2018-10-31 02:00:00 6.3 8 Norte 31 Oeste 0 914.3 0.5 84
2018-10-31 01:00:00 6.6 12 Oeste 24 Oeste 0 914 1.4 84
2018-10-31 00:00:00 6.5 10 Oeste 34 Oeste 0.8 913.9 1.2 87
2018-10-30 23:00:00 6.5 23 Oeste 44 Oeste 0.8 913.8 0.5 90
2018-10-30 22:00:00 7.5 3 Sur 8 Oeste 0 912.6 -0.2 97
2018-10-30 21:00:00 7.9 6 Oeste 13 Nordeste 0.2 912.7 -0.2 97
2018-10-30 20:00:00 8.3 4 Noroeste 9 Oeste 0.2 913.3 0.6 94
2018-10-30 19:00:00 8.5 3 Norte 10 Noroeste 0 912.8 0.3 86
2018-10-30 18:00:00 9 5 Oeste 24 Oeste 0 912.9 0.6 83
2018-10-30 17:00:00 10 15 Oeste 32 Sudoeste 0 912.7 -0.4 76
2018-10-30 16:00:00 12.5 13 Sudeste 40 Sudeste 0 912.5 -1.5 62
2018-10-30 15:00:00 15.2 22 Sudeste 40 Sudeste 0 912.3 -3.1 48
2018-10-30 14:00:00 12.5 19 Sudeste 43 Sudeste 0 913.1 -3 55
2018-10-30 13:00:00 10.5 6 Norte 14 Norte 0 914 -2.7 57
2018-10-30 12:00:00 9.7 10 Norte 14 Noroeste 0 915.4 -1.6 60
2018-10-30 11:00:00 8.8 2 Sur 8 Sur 0 916.1 -0.7 58
2018-10-30 10:00:00 7 3 Nordeste 8 Norte 0 916.7 -0.4 73
2018-10-30 09:00:00 5.9 3 Sur 9 Sudeste 0 917 -0.5 77
2018-10-30 08:00:00 5.2 5 Este 10 Sur 0 916.8 -0.7 77
2018-10-30 07:00:00 5.4 5 Norte 16 Noroeste 0 917.1 -1 71
2018-10-30 06:00:00 6.1 12 Noroeste 18 Noroeste 0 917.5 -1.3 64
2018-10-30 05:00:00 5.9 9 Noroeste 26 Sudoeste 0 917.5 -1.6 64
2018-10-30 04:00:00 6.2 10 Oeste 26 Oeste 0 918.1 -1.2 62
2018-10-30 03:00:00 6.2 9 Sudoeste 31 Oeste 0 918.8 -0.3 62
2018-10-30 02:00:00 6.8 16 Oeste 36 Oeste 0 919.1 -0.1 61
2018-10-30 01:00:00 6.5 10 Oeste 23 Oeste 0 919.3 0.2 60
2018-10-30 00:00:00 6 15 Oeste 31 Oeste 0 919.1 0.8 57
2018-10-29 23:00:00 6 10 Sudoeste 26 Sudoeste 0 919.2 1 55
2018-10-29 22:00:00 6.1 10 Sudoeste 28 Oeste 0 919.1 1.7 56
2018-10-29 21:00:00 6.5 19 Oeste 35 Oeste 0 918.3 1.2 57
2018-10-29 20:00:00 6.4 13 Oeste 27 Oeste 0 918.2 1.7 59
2018-10-29 19:00:00 6.8 17 Oeste 33 Oeste 0 917.4 1.6 56
2018-10-29 18:00:00 8.1 21 Oeste 48 Oeste 0 917.1 1.8 44
2018-10-29 17:00:00 9.4 24 Oeste 43 Oeste 0 916.5 1.3 39
2018-10-29 16:00:00 9.6 23 Noroeste 44 Noroeste 0 915.8 -0.1 43
2018-10-29 15:00:00 9.8 23 Noroeste 40 Oeste 0 915.3 -1.4 43
2018-10-29 14:00:00 9.1 22 Oeste 41 Noroeste 0 915.2 -1.7 49
2018-10-29 13:00:00 9.1 20 Oeste 37 Noroeste 0 915.9 -0.7 51
2018-10-29 12:00:00 7.6 18 Noroeste 35 Oeste 0 916.7 0.5 58
2018-10-29 11:00:00 6 17 Noroeste 41 Oeste 0 916.9 1.2 60
2018-10-29 10:00:00 5.7 27 Oeste 51 Oeste 0 916.6 1.4 56
2018-10-29 09:00:00 3.6 12 Noroeste 21 Noroeste 0 916.2 0.9 69
2018-10-29 08:00:00 2.1 8 Noroeste 17 Noroeste 0 915.7 0.7 72
2018-10-29 07:00:00 1.8 12 Oeste 19 Oeste 0 915.2 0.4 74
2018-10-29 06:00:00 2 14 Oeste 26 Oeste 0 915.3 -0.1 77
2018-10-29 05:00:00 2.1 7 Noroeste 17 Oeste 0 915 -0.5 77
2018-10-29 04:00:00 3.2 9 Oeste 22 Oeste 0 914.8 -0.7 68
2018-10-29 03:00:00 3.1 11 Oeste 23 Oeste 0 915.4 0.4 70
2018-10-29 02:00:00 3.4 17 Oeste 33 Oeste 0 915.5 1 75
2018-10-29 01:00:00 3.9 22 Oeste 33 Oeste 0 915.5 1.5 72
2018-10-29 00:00:00 4.1 19 Oeste 34 Oeste 0 915 1.3 74
2018-10-28 23:00:00 4.4 18 Oeste 38 Oeste 0 914.5 1.3 73
2018-10-28 22:00:00 4.4 23 Oeste 41 Oeste 0 914 1.4 75
2018-10-28 21:00:00 4.3 23 Oeste 36 Oeste 0 913.7 2.1 75
2018-10-28 20:00:00 4.6 20 Oeste 32 Oeste 0 913.2 2.3 73
2018-10-28 19:00:00 5.1 21 Oeste 36 Oeste 0 912.6 2.1 72
2018-10-28 18:00:00 5.5 22 Oeste 39 Oeste 0 911.6 1.4 72
2018-10-28 17:00:00 6.9 19 Oeste 36 Oeste 0 910.9 0.7 63
2018-10-28 16:00:00 8.1 16 Oeste 29 Oeste 0 910.5 -0.4 52
2018-10-28 15:00:00 8.5 20 Oeste 33 Oeste 0 910.2 -1.2 56
2018-10-28 14:00:00 10.2 13 Oeste 23 Oeste 0 910.2 -1.6 41
2018-10-28 13:00:00 8.9 15 Noroeste 24 Noroeste 0 910.9 -1 50
2018-10-28 12:00:00 7.2 10 Oeste 22 Noroeste 0 911.4 -0.5 66
2018-10-28 11:00:00 6.8 15 Noroeste 26 Oeste 0 911.8 0.5 66
2018-10-28 10:00:00 5.6 14 Noroeste 21 Noroeste 0 911.9 0.5 78
2018-10-28 09:00:00 5 14 Noroeste 22 Noroeste 0 911.9 0.2 83
2018-10-28 08:00:00 3.7 4 Norte 15 Norte 0 911.3 0.4 89
2018-10-28 07:00:00 3.6 7 Norte 23 Noroeste 0 911.4 0.8 88
2018-10-28 06:00:00 4.9 12 Noroeste 30 Oeste 0 911.7 1.3 79
2018-10-28 05:00:00 5 15 Oeste 33 Noroeste 0 910.9 0.3 79
2018-10-28 04:00:00 6.1 15 Oeste 39 Oeste 0 910.6 -0.9 82
2018-10-28 03:00:00 7.5 24 Oeste 44 Oeste 0 910.4 -1.8 64
2018-10-28 02:00:00 7.4 9 Oeste 20 Oeste 0 910.6 -1.8 69
2018-10-28 01:00:00 8 8 Noroeste 17 Norte 0 912.2 0.1 80
2018-10-28 00:00:00 8.5 6 Noroeste 37 Noroeste 0 912.4 -0.1 81
2018-10-27 23:00:00 10.1 19 Oeste 35 Noroeste 0 912.1 -0.3 76
2018-10-27 22:00:00 10.3 19 Oeste 40 Oeste 0.4 912.1 -0.2 81
2018-10-27 21:00:00 11.8 24 Oeste 48 Oeste 0.2 912.5 -0.3 64
2018-10-27 20:00:00 13.1 18 Sudoeste 46 Oeste 0.2 912.4 -1.2 64
2018-10-27 19:00:00 14.8 19 Oeste 46 Oeste 0 912.3 -2.5 64
2018-10-27 18:00:00 17.3 13 Oeste 27 Sudoeste 0 912.8 -3.2 57
2018-10-27 17:00:00 16.3 8 Oeste 23 Oeste 0 913.6 -3.6 65
2018-10-27 16:00:00 14.9 11 Noroeste 33 Oeste 0 914.8 -3.3 73
2018-10-27 15:00:00 13.8 17 Oeste 35 Oeste 0 916 -2.6 83
2018-10-27 14:00:00 12.6 19 Oeste 31 Oeste 0.6 917.2 -1.8 92
2018-10-27 13:00:00 12.1 20 Oeste 32 Oeste 0.4 918.1 -0.8 92
2018-10-27 12:00:00 13.6 15 Noroeste 24 Oeste 0 918.6 -0.4 85
2018-10-27 11:00:00 13.3 11 Noroeste 29 Oeste 0 919 -0.2 86
2018-10-27 10:00:00 12.7 12 Noroeste 23 Oeste 0 918.9 -0.4 92
2018-10-27 09:00:00 11.7 8 Noroeste 20 Noroeste 0 919 -1 97
2018-10-27 08:00:00 11.1 5 Noroeste 15 Noroeste 0 919.2 -0.8 95
2018-10-27 07:00:00 11.4 8 Noroeste 19 Noroeste 0 919.3 -1.5 92
2018-10-27 06:00:00 9.9 3 Sudeste 9 Sudeste 0 920 -1.6 98
2018-10-27 05:00:00 9.3 6 Sudeste 12 Sudeste 0 920 -2 98
2018-10-27 04:00:00 9.2 0 Calma 6 Noroeste 0 920.8 -2 97
2018-10-27 03:00:00 9.1 2 Sudeste 8 Sudeste 0 921.6 -1.5 97
2018-10-27 02:00:00 8.8 5 Sudeste 9 Sudeste 0 922 -1.3 96
2018-10-27 01:00:00 9.5 4 Oeste 6 Oeste 0 922.8 -0.7 96
2018-10-27 00:00:00 9.6 4 Sur 8 Sudeste 0 923.1 -0.5 95
2018-10-26 23:00:00 10.1 4 Sur 8 Sudeste 0 923.3 -0.4 93
2018-10-26 22:00:00 10.9 5 Sur 6 Sur 0 923.5 -0.3 90
2018-10-26 21:00:00 12.4 2 Oeste 7 Sur 0 923.6 -0.4 84
2018-10-26 20:00:00 13.3 4 Sudoeste 9 Sudeste 0 923.7 -0.4 78
2018-10-26 19:00:00 15.2 5 Nordeste 10 Noroeste 0 923.8 -0.9 67
2018-10-26 18:00:00 15.4 10 Noroeste 21 Oeste 0 924 -0.3 66
2018-10-26 17:00:00 15.1 15 Oeste 27 Oeste 0.2 924.1 -1.2 70
2018-10-26 16:00:00 16.9 21 Oeste 35 Oeste 0 924.7 -1.6 55
2018-10-26 15:00:00 19.8 12 Oeste 17 Oeste 0 924.3 -2.5 37
2018-10-26 14:00:00 18.9 8 Norte 13 Noroeste 0 925.3 -1.7 46
2018-10-26 13:00:00 16.6 5 Norte 10 Norte 0 926.3 -0.8 55
2018-10-26 12:00:00 12.7 4 Noroeste 9 Oeste 0 926.8 0.2 66
2018-10-26 11:00:00 9.6 5 Oeste 8 Oeste 0 927 0.6 78
2018-10-26 10:00:00 7 3 Norte 6 Sudeste 0 927.1 0.5 95
2018-10-26 09:00:00 4.8 3 Sur 6 Sur 0 926.6 0 94
2018-10-26 08:00:00 5.5 3 Sudeste 7 Sudoeste 0 926.4 -0.6 92
2018-10-26 07:00:00 5.6 6 Sudeste 8 Sudeste 0 926.6 -1.3 92
2018-10-26 06:00:00 7.1 4 Sur 8 Sudoeste 0 926.6 -1.4 87
2018-10-26 05:00:00 6.9 4 Sudoeste 6 Sudeste 0 927 -1.3 92
2018-10-26 04:00:00 7.2 3 Oeste 5 Oeste 0 927.9 -0.6 88
2018-10-26 03:00:00 8.5 4 Oeste 6 Oeste 0 928 -0.9 86
2018-10-26 02:00:00 8.7 4 Este 11 Sur 0 928.3 -0.5 79
2018-10-26 01:00:00 9.8 8 Sur 15 Sur 0 928.5 0.2 73
2018-10-26 00:00:00 10.8 10 Sur 15 Sudeste 0 928.9 0.6 76
2018-10-25 23:00:00 11.4 2 Este 10 Sudeste 0 928.8 0.5 68
2018-10-25 22:00:00 12.7 10 Sudeste 14 Sur 0 928.3 0.3 60
2018-10-25 21:00:00 14.7 10 Sur 16 Sudeste 0 928.3 0.7 53
2018-10-25 20:00:00 17.8 11 Sur 18 Sur 0 928.3 0.5 42
2018-10-25 19:00:00 23.2 9 Sur 15 Sur 0 928 -0.4 27
2018-10-25 18:00:00 24.9 6 Norte 12 Noroeste 0 927.6 -1.3 27
2018-10-25 17:00:00 24.9 7 Norte 12 Norte 0 927.8 -1.9 29
2018-10-25 16:00:00 23.9 7 Norte 13 Noroeste 0 928.4 -2.2 29
2018-10-25 15:00:00 22.3 5 Norte 13 Oeste 0 928.9 -2.4 39
2018-10-25 14:00:00 20.3 4 Oeste 9 Noroeste 0 929.7 -1.9 45
2018-10-25 13:00:00 16.7 4 Noroeste 8 Noroeste 0 930.6 -1 63
2018-10-25 12:00:00 12.9 4 Norte 9 Norte 0 931.3 -0.2 75
2018-10-25 11:00:00 9.5 5 Oeste 7 Noroeste 0 931.6 0.5 96
2018-10-25 10:00:00 6.8 0 Calma 5 Sur 0 931.6 0.5 98
2018-10-25 09:00:00 4.3 4 Sudeste 5 Sudeste 0 931.5 0.5 96
2018-10-25 08:00:00 4.8 2 Sur 5 Sudeste 0 931.1 0 95
2018-10-25 07:00:00 5.3 3 Sudeste 6 Sur 0 931.1 -0.4 94
2018-10-25 06:00:00 5.6 6 Sudeste 8 Sudeste 0 931 -0.7 95
2018-10-25 05:00:00 6 6 Sur 7 Sur 0 931.1 -0.8 94
2018-10-25 04:00:00 6.8 4 Sur 6 Sur 0 931.5 -0.8 93
2018-10-25 03:00:00 7.3 5 Sur 8 Sudeste 0 931.7 -0.7 93
2018-10-25 02:00:00 8.6 3 Sudoeste 7 Oeste 0 931.9 -0.5 88
2018-10-25 01:00:00 9.5 4 Sudoeste 7 Oeste 0 932.3 0 85
2018-10-25 00:00:00 10.1 8 Sur 13 Sudeste 0 932.4 0.2 81
2018-10-24 23:00:00 10.7 12 Sudeste 14 Sudeste 0 932.4 0.4 77
2018-10-24 22:00:00 11.3 9 Sudeste 13 Sudeste 0 932.3 0.5 75
2018-10-24 21:00:00 12.4 10 Sudeste 12 Sudeste 0 932.2 0.2 73
2018-10-24 20:00:00 16.4 8 Sur 10 Sur 0 932 -0.3 64
2018-10-24 19:00:00 21.8 3 Noroeste 10 Norte 0 931.8 -1.1 48
2018-10-24 18:00:00 22.1 5 Norte 11 Noroeste 0 932 -1.6 39
2018-10-24 17:00:00 21.3 6 Noroeste 12 Norte 0 932.3 -2.4 49
2018-10-24 16:00:00 19.7 6 Norte 12 Norte 0 932.9 -2.7 63
2018-10-24 15:00:00 17.4 5 Norte 12 Norte 0 933.6 -2.2 69
2018-10-24 14:00:00 15.5 5 Norte 11 Norte 0 934.7 -1.5 80
2018-10-24 13:00:00 13.2 4 Norte 12 Norte 0 935.6 -0.4 92
2018-10-24 12:00:00 12.1 3 Sudoeste 8 Noroeste 0 935.8 0.5 97
2018-10-24 11:00:00 11.2 3 Norte 7 Norte 0 936.2 1 99
2018-10-24 10:00:00 10.7 4 Sur 8 Sur 0 936 0.6 99
2018-10-24 09:00:00 10.6 5 Sur 8 Sur 0 935.3 -0.1 99
2018-10-24 08:00:00 11.1 4 Sur 7 Sur 0 935.2 -0.3 98
2018-10-24 07:00:00 10.9 2 Este 7 Sur 0 935.4 -0.2 98
2018-10-24 06:00:00 9.9 4 Sudeste 6 Sudoeste 0 935.4 -0.6 97
2018-10-24 05:00:00 9 4 Sudoeste 7 Sudoeste 0 935.5 -0.7 97
2018-10-24 04:00:00 8.5 6 Sudeste 8 Sudeste 0 935.6 -0.5 95
2018-10-24 03:00:00 9.3 5 Sudeste 10 Sur 0 936 -0.5 94
2018-10-24 02:00:00 10.5 4 Sur 7 Sudeste 0 936.2 -0.1 94
2018-10-24 01:00:00 11.3 6 Sur 8 Sur 0 936.1 0.5 93
2018-10-24 00:00:00 12.5 6 Sur 11 Sur 0 936.5 1.3 92
2018-10-23 23:00:00 13.8 6 Sur 20 Sudeste 0 936.3 1.4 92
2018-10-23 22:00:00 14.2 12 Sudeste 26 Sudeste 0 935.6 1.2 91
2018-10-23 21:00:00 14.9 13 Sur 25 Sudeste 0 935.2 0.9 89
2018-10-23 20:00:00 16.2 11 Sudeste 27 Sudeste 0 934.9 0.6 80
2018-10-23 19:00:00 19 16 Sudeste 26 Sudeste 0 934.4 0.1 60
2018-10-23 18:00:00 22.6 10 Sudeste 18 Sur 0 934.3 -0.4 46
2018-10-23 17:00:00 23.3 10 Sudeste 24 Sudeste 0 934.3 -0.8 43
2018-10-23 16:00:00 22.9 13 Sudeste 26 Sudeste 0 934.3 -1.3 47
2018-10-23 15:00:00 21.6 13 Sudeste 27 Sudeste 0 934.7 -1.2 50
2018-10-23 14:00:00 21.6 13 Sudeste 25 Sudeste 0 935.1 -0.5 52
2018-10-23 13:00:00 18.7 12 Este 24 Sudeste 0 935.6 0.5 68
2018-10-23 12:00:00 14.9 2 Sur 12 Norte 0 935.9 1.6 92
2018-10-23 11:00:00 13.5 6 Norte 9 Norte 0 935.6 1.5 96
2018-10-23 10:00:00 11.6 5 Sudeste 9 Este 0 935.1 1.1 98
2018-10-23 09:00:00 10.8 5 Sudeste 7 Sudeste 0 934.3 0.2 98
2018-10-23 08:00:00 10.8 6 Sudeste 10 Sur 0 934.1 0.4 98
2018-10-23 07:00:00 10.8 8 Sur 11 Sudeste 0 934 0.1 98
2018-10-23 06:00:00 10.6 4 Sudeste 5 Este 0 934.1 0.2 97
2018-10-23 05:00:00 11.1 3 Este 6 Este 0 933.7 -0.4 97
2018-10-23 04:00:00 11.5 3 Sudeste 12 Sur 0 933.9 0.2 96
2018-10-23 03:00:00 12.3 3 Este 8 Este 0 933.9 0.1 96
2018-10-23 02:00:00 13 5 Este 15 Sur 0 934.1 0.9 96
2018-10-23 01:00:00 13.3 10 Sur 17 Sudeste 0 933.7 1 96
2018-10-23 00:00:00 13.6 9 Sudeste 16 Sudeste 0 933.8 1.8 95
2018-10-22 23:00:00 13.9 7 Sur 16 Sudeste 0 933.2 1.8 92
2018-10-22 22:00:00 14.7 11 Sudeste 20 Sudeste 0 932.7 2 87
2018-10-22 21:00:00 15.5 7 Sur 17 Sur 0 932 2.1 77
2018-10-22 20:00:00 17 9 Sur 17 Sur 0 931.4 1.5 68
2018-10-22 19:00:00 19.4 11 Sudeste 27 Sudeste 0 930.7 0.6 54
2018-10-22 18:00:00 23.1 12 Sudeste 20 Sudeste 0 929.9 -0.4 41
2018-10-22 17:00:00 23.7 3 Noroeste 14 Norte 0 929.9 -1.3 52
2018-10-22 16:00:00 21.8 8 Norte 14 Norte 0 930.1 -1.7 54
2018-10-22 15:00:00 20 10 Norte 16 Norte 0 930.3 -1.7 67
2018-10-22 14:00:00 18.1 3 Noroeste 7 Noroeste 0 931.2 -1 76
2018-10-22 13:00:00 13.8 2 Sudoeste 7 Noroeste 0 931.8 -0.4 97
2018-10-22 12:00:00 12.1 3 Sur 8 Sur 0 932 0.7 99
2018-10-22 11:00:00 10.6 3 Sudeste 6 Norte 0 932.2 1.2 99
2018-10-22 10:00:00 9.9 4 Noroeste 6 Noroeste 0 932.2 1.3 99
2018-10-22 09:00:00 8.8 3 Norte 5 Noroeste 0 931.3 0.7 99
2018-10-22 08:00:00 8.9 0 Calma 8 Oeste 0 931 0.4 98
2018-10-22 07:00:00 8.1 4 Sudoeste 7 Sur 0 930.9 0.1 97
2018-10-22 06:00:00 8.6 2 Sur 6 Sudoeste 0 930.6 -0.4 97
2018-10-22 05:00:00 9.3 5 Sur 7 Sudeste 0 930.6 -0.4 97
2018-10-22 04:00:00 9.6 4 Sudoeste 8 Sudeste 0 930.8 0 96
2018-10-22 03:00:00 10.5 4 Sur 7 Sur 0 931 0.2 96
2018-10-22 02:00:00 11.2 5 Sur 7 Sur 0 931 0.3 96
2018-10-22 01:00:00 12.2 3 Este 9 Este 0 930.8 0.3 96
2018-10-22 00:00:00 13.2 3 Este 14 Sudeste 0 930.8 0.5 96
2018-10-21 23:00:00 14.1 10 Sudeste 13 Sudeste 0 930.7 0.9 96
2018-10-21 22:00:00 14.7 5 Este 8 Sudeste 0 930.5 1.4 93
2018-10-21 21:00:00 15.9 5 Sudeste 15 Sudeste 0 930.3 1.7 89
2018-10-21 20:00:00 17 6 Sudeste 19 Sudeste 0 929.8 0.9 85
2018-10-21 19:00:00 18.2 11 Sudeste 19 Sudeste 0 929.1 0.1 79
2018-10-21 18:00:00 19.5 14 Sudeste 28 Sudeste 0 928.6 -0.7 72
2018-10-21 17:00:00 22.2 14 Sudeste 31 Este 0 928.9 -1.3 61
2018-10-21 16:00:00 22 17 Sudeste 27 Sudeste 0 929 -1.5 62
2018-10-21 15:00:00 21.8 16 Sudeste 30 Sudeste 0 929.3 -1.4 63
2018-10-21 14:00:00 21.1 15 Sudeste 25 Sudeste 0 930.2 -0.7 65
2018-10-21 13:00:00 18.9 4 Sur 8 Sudoeste 0 930.5 -0.4 75
2018-10-21 12:00:00 17.3 4 Oeste 7 Oeste 0 930.7 0.5 85
2018-10-21 11:00:00 15.7 3 Sudoeste 7 Sur 0 930.9 1.2 95
2018-10-21 10:00:00 14.4 3 Nordeste 6 Nordeste 0 930.9 1.4 98
2018-10-21 09:00:00 13.6 2 Nordeste 8 Nordeste 0 930.2 0.9 98
2018-10-21 08:00:00 13.4 5 Norte 9 Norte 0 929.7 0.2 98
2018-10-21 07:00:00 13.5 3 Nordeste 7 Nordeste 0 929.5 -0.3 98
2018-10-21 06:00:00 13.1 7 Sudeste 9 Sur 0 929.3 -0.7 98
2018-10-21 05:00:00 13.4 2 Este 5 Sur 0 929.5 -0.5 97
2018-10-21 04:00:00 13.4 3 Sur 8 Oeste 0 929.8 -0.2 96
2018-10-21 03:00:00 13.8 6 Oeste 8 Oeste 0 930 0.2 96
2018-10-21 02:00:00 14.2 6 Sur 8 Sur 0 930 0.5 95
2018-10-21 01:00:00 14.3 5 Sur 10 Oeste 0 930 0.9 94
2018-10-21 00:00:00 14.2 4 Noroeste 18 Sudoeste 0.4 929.8 0.9 95
2018-10-20 23:00:00 14.1 3 Oeste 9 Este 0 929.5 1.3 92
2018-10-20 22:00:00 13.8 3 Sur 17 Este 0 929.1 1.6 90
2018-10-20 21:00:00 14.4 12 Este 25 Este 0.2 928.9 1.8 90
2018-10-20 20:00:00 14.8 8 Sudeste 21 Este 0 928.2 1.2 88
2018-10-20 19:00:00 15.3 10 Este 29 Este 0 927.5 0.1 84
2018-10-20 18:00:00 15.6 13 Este 37 Este 0.2 927.1 -0.1 87
2018-10-20 17:00:00 15.6 9 Este 22 Sudeste 0.4 927 -1.1 92
2018-10-20 16:00:00 14.7 13 Sudeste 25 Sudeste 0.2 927.4 -0.9 95
2018-10-20 15:00:00 14.3 8 Sudeste 26 Sudeste 1.8 927.2 -1 95
2018-10-20 14:00:00 14.3 10 Sudeste 26 Sudeste 0 928.1 0 86
2018-10-20 13:00:00 14.1 12 Sudeste 22 Sudeste 0 928.3 0.5 86
2018-10-20 12:00:00 13.3 9 Sudeste 14 Sudeste 0 928.2 0.9 91
2018-10-20 11:00:00 12.6 0 Calma 10 Sudeste 0 928.1 1.9 97
2018-10-20 10:00:00 11.5 3 Oeste 12 Este 0 927.8 1.8 98
2018-10-20 09:00:00 10.7 4 Este 12 Sudeste 0.4 927.3 1.5 98
2018-10-20 08:00:00 10 7 Sudeste 12 Este 0 926.2 0.1 96
2018-10-20 07:00:00 9.1 6 Sudeste 11 Sudeste 0 926 -0.6 94
2018-10-20 06:00:00 9.3 4 Nordeste 11 Sudeste 0 925.8 -0.9 94
2018-10-20 05:00:00 8.4 6 Sudeste 9 Sudeste 0 926.1 -0.6 95
2018-10-20 04:00:00 7.7 7 Sudeste 13 Sur 0 926.6 0.2 96
2018-10-20 03:00:00 7 8 Sur 12 Sudeste 0 926.7 0.6 94
2018-10-20 02:00:00 7.1 3 Este 10 Sur 0 926.7 1 93
2018-10-20 01:00:00 7.6 6 Sur 9 Sur 0 926.4 1.2 93
2018-10-20 00:00:00 8.5 7 Sudeste 10 Sudeste 0 926.1 1.5 91
2018-10-19 23:00:00 9.6 4 Este 10 Sur 0 925.7 2 85
2018-10-19 22:00:00 10.5 5 Sur 12 Sudeste 0 925.2 2.2 80
2018-10-19 21:00:00 12 5 Sudeste 19 Sudeste 0 924.6 2.2 72
2018-10-19 20:00:00 13.8 13 Sudeste 28 Este 0 923.7 1.6 61
2018-10-19 19:00:00 16.5 14 Este 29 Este 0 923 0.7 51
2018-10-19 18:00:00 18.7 17 Este 31 Sudeste 0 922.4 -0.1 44
2018-10-19 17:00:00 17.1 17 Sudeste 29 Este 0 922.1 -0.6 52
2018-10-19 16:00:00 17.7 15 Sudeste 27 Este 0 922.3 -0.7 49
2018-10-19 15:00:00 17.2 12 Este 25 Este 0 922.5 -0.6 50
2018-10-19 14:00:00 17.5 10 Este 24 Este 0 922.7 -0.4 49
2018-10-19 13:00:00 15.2 8 Norte 15 Norte 0 923 0.2 68
2018-10-19 12:00:00 13.3 8 Este 14 Sudeste 0 923.1 1.3 75
2018-10-19 11:00:00 10.1 3 Sur 7 Sur 0 923.1 1.7 98
2018-10-19 10:00:00 8.1 3 Norte 10 Nordeste 0 922.8 1.7 99
2018-10-19 09:00:00 6.7 3 Sudeste 10 Sudeste 0.2 921.8 1.2 98
2018-10-19 08:00:00 6.3 2 Noroeste 7 Sur 0 921.4 0.4 98
2018-10-19 07:00:00 5.9 2 Este 9 Sudoeste 0 921.1 0.1 97
2018-10-19 06:00:00 6.3 5 Sur 9 Sudeste 0 920.6 -0.3 97
2018-10-19 05:00:00 6.8 7 Sur 13 Sur 0 921 -0.1 96
2018-10-19 04:00:00 7.5 5 Sur 6 Sur 0 921 0.2 95
2018-10-19 03:00:00 9 4 Noroeste 9 Sudoeste 0 920.9 -0.2 96
2018-10-19 02:00:00 9.9 3 Oeste 11 Sudoeste 0 921.1 -0.3 94
2018-10-19 01:00:00 10 5 Oeste 10 Oeste 0 920.8 -0.1 91
2018-10-19 00:00:00 10.1 7 Oeste 10 Oeste 0 921.1 0.7 91
2018-10-18 23:00:00 10.2 7 Noroeste 14 Oeste 0 921.4 1.4 91
2018-10-18 22:00:00 10.2 8 Noroeste 15 Oeste 0 920.9 1.4 90
2018-10-18 21:00:00 10.1 8 Sudoeste 15 Sudoeste 0.2 920.4 1.3 95
2018-10-18 20:00:00 10.2 4 Norte 19 Noroeste 0 920 1.4 97
2018-10-18 19:00:00 10.2 10 Noroeste 26 Oeste 0.6 919.5 1.5 94
2018-10-18 18:00:00 11 -- -- -- -- -- 919.1 0.6 89
2018-10-18 17:00:00 14.8 8 Oeste 30 Este 0 918.6 -0.1 63
2018-10-18 16:00:00 17.2 16 Este 31 Este 0 918 -1.5 57
2018-10-18 15:00:00 17.9 18 Este 36 Este 0 918.5 -1.1 57
2018-10-18 14:00:00 17.5 20 Sudeste 38 Este 0 918.7 -1.2 58
2018-10-18 13:00:00 17.4 21 Este 44 Sudeste 0 919.5 -0.3 57
2018-10-18 12:00:00 15.7 18 Sudeste 30 Sudeste 0 919.6 -0.3 66
2018-10-18 11:00:00 13.8 2 Sur 11 Sur 0 919.9 -0.2 80
2018-10-18 10:00:00 10.4 2 Sudeste 7 Sudeste 0 919.8 -0.9 97
2018-10-18 09:00:00 8.6 3 Sur 6 Sur 0 919.9 -1.2 97
2018-10-18 08:00:00 8 3 Sudeste 5 Sudeste 0 920.1 -1.4 96
2018-10-18 07:00:00 8 3 Sudoeste 8 Sur 0 920.7 -1.5 96
2018-10-18 06:00:00 8 0 Calma 8 Sudoeste 0 921.1 -2 94
2018-10-18 05:00:00 8.1 8 Sur 9 Sudoeste 0 921.5 -2.2 95
2018-10-18 04:00:00 8.2 6 Sur 7 Sudeste 0 922.2 -2 92
2018-10-18 03:00:00 9.1 5 Sur 10 Sudoeste 0 923.1 -1.5 89
2018-10-18 02:00:00 9.6 5 Este 10 Sudeste 0 923.7 -1 86
2018-10-18 01:00:00 10.6 8 Sudeste 10 Sudeste 0 924.2 -0.4 82
2018-10-18 00:00:00 11.5 5 Sur 14 Sur 0 924.6 0.1 78